Time,TemperatureF,DewpointF,PressureIn,WindDirection,WindDirectionDegrees,WindSpeedMPH,WindSpeedGustMPH,Humidity,HourlyPrecipIn,Conditions,Clouds,dailyrainin,SoftwareType,DateUTC
2013-02-19 00:09:00,25.7,23.2,29.55,WSW,242,3.0,4.0,90,0.00,,,0.00,VWS V12.07,2013-02-19 06:09:00,
2013-02-19 00:14:00,25.8,23.3,29.55,ENE,74,0.0,5.0,90,0.00,,,0.00,VWS V12.07,2013-02-19 06:14:00,
2013-02-19 00:19:00,25.8,23.3,29.55,NE,38,3.0,6.0,90,0.00,,,0.00,VWS V12.07,2013-02-19 06:19:00,
2013-02-19 00:24:00,25.8,23.3,29.56,NW,311,0.0,6.0,90,0.00,,,0.00,VWS V12.07,2013-02-19 06:24:00,
2013-02-19 00:29:00,25.8,23.3,29.55,East,96,1.0,6.0,90,0.00,,,0.00,VWS V12.07,2013-02-19 06:29:00,
2013-02-19 00:34:00,25.8,23.3,29.55,NNE,32,0.0,1.0,90,0.00,,,0.00,VWS V12.07,2013-02-19 06:34:00,
2013-02-19 00:39:00,25.8,23.3,29.55,NNE,32,0.0,1.0,90,0.00,,,0.00,VWS V12.07,2013-02-19 06:39:00,
2013-02-19 00:44:00,25.9,23.4,29.55,SSE,151,1.0,5.0,90,0.00,,,0.00,VWS V12.07,2013-02-19 06:44:00,
2013-02-19 00:49:00,25.9,23.4,29.55,ENE,58,4.0,5.0,90,0.00,,,0.00,VWS V12.07,2013-02-19 06:49:00,
2013-02-19 00:54:00,25.9,23.4,29.55,SSW,192,0.0,5.0,90,0.00,,,0.00,VWS V12.07,2013-02-19 06:54:00,
2013-02-19 00:59:00,25.8,23.0,29.55,SW,222,0.0,5.0,89,0.00,,,0.00,VWS V12.07,2013-02-19 06:59:00,
2013-02-19 01:09:00,25.7,22.9,29.56,SE,137,1.0,6.0,89,0.00,,,0.00,VWS V12.07,2013-02-19 07:09:00,
2013-02-19 01:14:00,25.3,22.2,29.56,NNW,340,0.0,6.0,88,0.00,,,0.00,VWS V12.07,2013-02-19 07:14:00,
2013-02-19 01:19:00,24.8,21.5,29.57,ESE,103,1.0,6.0,87,0.00,,,0.00,VWS V12.07,2013-02-19 07:19:00,
2013-02-19 01:24:00,24.2,20.9,29.57,WNW,298,5.0,7.0,87,0.00,,,0.00,VWS V12.07,2013-02-19 07:24:00,
2013-02-19 01:29:00,23.6,20.3,29.57,ENE,77,2.0,8.0,87,0.00,,,0.00,VWS V12.07,2013-02-19 07:29:00,
2013-02-19 01:34:00,23.1,19.8,29.57,NW,304,2.0,3.0,87,0.00,,,0.00,VWS V12.07,2013-02-19 07:34:00,
2013-02-19 01:39:00,22.6,19.3,29.58,WNW,300,4.0,5.0,87,0.00,,,0.00,VWS V12.07,2013-02-19 07:39:00,
2013-02-19 01:44:00,22.2,18.9,29.57,NW,319,2.0,8.0,87,0.00,,,0.00,VWS V12.07,2013-02-19 07:44:00,
2013-02-19 01:49:00,21.8,18.5,29.57,NE,56,3.0,10.0,87,0.00,,,0.00,VWS V12.07,2013-02-19 07:49:00,
2013-02-19 01:54:00,21.6,18.3,29.57,South,188,3.0,10.0,87,0.00,,,0.00,VWS V12.07,2013-02-19 07:54:00,
2013-02-19 01:59:00,21.5,18.2,29.57,WSW,241,4.0,10.0,87,0.00,,,0.00,VWS V12.07,2013-02-19 07:59:00,
2013-02-19 02:04:00,21.2,17.9,29.57,North,355,0.0,11.0,87,0.00,,,0.00,VWS V12.07,2013-02-19 08:04:00,
2013-02-19 02:09:00,20.9,17.6,29.58,SSW,192,1.0,11.0,87,0.00,,,0.00,VWS V12.07,2013-02-19 08:09:00,
2013-02-19 02:14:00,20.7,17.5,29.58,NNW,342,1.0,11.0,87,0.00,,,0.00,VWS V12.07,2013-02-19 08:14:00,
2013-02-19 02:24:00,20.3,17.1,29.57,West,259,4.0,11.0,87,0.00,,,0.00,VWS V12.07,2013-02-19 08:24:00,
2013-02-19 02:29:00,20.1,16.9,29.57,NNW,340,2.0,11.0,87,0.00,,,0.00,VWS V12.07,2013-02-19 08:29:00,
2013-02-19 02:34:00,20.0,16.8,29.57,South,191,4.0,9.0,87,0.00,,,0.00,VWS V12.07,2013-02-19 08:34:00,
2013-02-19 02:39:00,19.7,16.5,29.57,North,355,1.0,9.0,87,0.00,,,0.00,VWS V12.07,2013-02-19 08:39:00,
2013-02-19 02:44:00,19.6,16.4,29.58,West,277,2.0,9.0,87,0.00,,,0.00,VWS V12.07,2013-02-19 08:44:00,
2013-02-19 02:49:00,19.3,16.3,29.58,NNE,32,3.0,9.0,88,0.00,,,0.00,VWS V12.07,2013-02-19 08:49:00,
2013-02-19 02:54:00,19.1,16.1,29.58,NNW,333,1.0,9.0,88,0.00,,,0.00,VWS V12.07,2013-02-19 08:54:00,
2013-02-19 02:59:00,19.0,16.0,29.58,South,172,4.0,9.0,88,0.00,,,0.00,VWS V12.07,2013-02-19 08:59:00,
2013-02-19 03:04:00,18.8,15.8,29.59,NW,325,3.0,9.0,88,0.00,,,0.00,VWS V12.07,2013-02-19 09:04:00,
2013-02-19 03:09:00,18.6,15.4,29.59,ENE,73,0.0,9.0,87,0.00,,,0.00,VWS V12.07,2013-02-19 09:09:00,
2013-02-19 03:14:00,18.4,15.4,29.59,WSW,244,1.0,10.0,88,0.00,,,0.00,VWS V12.07,2013-02-19 09:14:00,
2013-02-19 03:24:00,18.1,14.9,29.59,NE,41,4.0,10.0,87,0.00,,,0.00,VWS V12.07,2013-02-19 09:24:00,
2013-02-19 03:29:00,17.8,14.6,29.59,WSW,244,6.0,10.0,87,0.00,,,0.00,VWS V12.07,2013-02-19 09:29:00,
2013-02-19 03:34:00,17.6,14.4,29.60,NNW,346,4.0,7.0,87,0.00,,,0.00,VWS V12.07,2013-02-19 09:34:00,
2013-02-19 03:39:00,17.3,13.8,29.60,WSW,257,1.0,7.0,86,0.00,,,0.00,VWS V12.07,2013-02-19 09:39:00,
2013-02-19 03:49:00,17.1,13.6,29.60,NNW,328,6.0,8.0,86,0.00,,,0.00,VWS V12.07,2013-02-19 09:49:00,
2013-02-19 03:54:00,16.9,13.4,29.60,NNW,344,0.0,8.0,86,0.00,,,0.00,VWS V12.07,2013-02-19 09:54:00,
2013-02-19 03:59:00,16.7,13.2,29.60,South,178,0.0,8.0,86,0.00,,,0.00,VWS V12.07,2013-02-19 09:59:00,
2013-02-19 04:04:00,16.4,12.9,29.61,East,87,1.0,6.0,86,0.00,,,0.00,VWS V12.07,2013-02-19 10:04:00,
2013-02-19 04:09:00,16.2,12.8,29.61,NNW,332,2.0,6.0,86,0.00,,,0.00,VWS V12.07,2013-02-19 10:09:00,
2013-02-19 04:14:00,16.0,12.6,29.62,NE,45,3.0,8.0,86,0.00,,,0.00,VWS V12.07,2013-02-19 10:14:00,
2013-02-19 04:19:00,15.7,12.3,29.62,SW,229,0.0,9.0,86,0.00,,,0.00,VWS V12.07,2013-02-19 10:19:00,
2013-02-19 04:24:00,15.3,11.9,29.62,ENE,71,2.0,12.0,86,0.00,,,0.00,VWS V12.07,2013-02-19 10:24:00,
2013-02-19 04:29:00,15.0,11.6,29.62,WNW,290,1.0,12.0,86,0.00,,,0.00,VWS V12.07,2013-02-19 10:29:00,
2013-02-19 04:34:00,14.8,11.4,29.63,WNW,292,1.0,5.0,86,0.00,,,0.00,VWS V12.07,2013-02-19 10:34:00,
2013-02-19 04:39:00,14.6,11.2,29.63,SW,225,4.0,5.0,86,0.00,,,0.00,VWS V12.07,2013-02-19 10:39:00,
2013-02-19 04:44:00,14.3,10.9,29.63,WSW,241,1.0,8.0,86,0.00,,,0.00,VWS V12.07,2013-02-19 10:44:00,
2013-02-19 04:49:00,13.7,10.0,29.64,SSW,196,9.0,11.0,85,0.00,,,0.00,VWS V12.07,2013-02-19 10:49:00,
2013-02-19 04:59:00,13.2,9.6,29.65,West,277,5.0,11.0,85,0.00,,,0.00,VWS V12.07,2013-02-19 10:59:00,
2013-02-19 05:04:00,13.0,8.8,29.65,NW,321,8.0,9.0,83,0.00,,,0.00,VWS V12.07,2013-02-19 11:04:00,
2013-02-19 05:09:00,12.8,8.6,29.65,NNE,30,6.0,9.0,83,0.00,,,0.00,VWS V12.07,2013-02-19 11:09:00,
2013-02-19 05:19:00,12.4,8.2,29.66,WNW,286,1.0,9.0,83,0.00,,,0.00,VWS V12.07,2013-02-19 11:19:00,
2013-02-19 05:24:00,12.3,8.1,29.67,NE,49,3.0,10.0,83,0.00,,,0.00,VWS V12.07,2013-02-19 11:24:00,
2013-02-19 05:29:00,12.2,8.0,29.67,West,267,3.0,11.0,83,0.00,,,0.00,VWS V12.07,2013-02-19 11:29:00,
2013-02-19 05:34:00,12.0,7.8,29.67,SW,233,4.0,6.0,83,0.00,,,0.00,VWS V12.07,2013-02-19 11:34:00,
2013-02-19 05:39:00,11.6,7.4,29.68,North,355,3.0,22.0,83,0.00,,,0.00,VWS V12.07,2013-02-19 11:39:00,
2013-02-19 05:44:00,11.3,6.9,29.68,WSW,237,4.0,22.0,82,0.00,,,0.00,VWS V12.07,2013-02-19 11:44:00,
2013-02-19 05:49:00,11.0,6.6,29.68,South,179,0.0,22.0,82,0.00,,,0.00,VWS V12.07,2013-02-19 11:49:00,
2013-02-19 05:54:00,10.8,6.4,29.69,WNW,284,6.0,22.0,82,0.00,,,0.00,VWS V12.07,2013-02-19 11:54:00,
2013-02-19 06:04:00,10.4,6.0,29.69,WNW,284,0.0,3.0,82,0.00,,,0.00,VWS V12.07,2013-02-19 12:04:00,
2013-02-19 06:09:00,10.3,5.9,29.69,WSW,254,2.0,11.0,82,0.00,,,0.00,VWS V12.07,2013-02-19 12:09:00,
2013-02-19 06:19:00,9.9,5.2,29.70,WSW,246,1.0,11.0,81,0.00,,,0.00,VWS V12.07,2013-02-19 12:19:00,
2013-02-19 06:29:00,9.6,4.9,29.70,West,265,0.0,12.0,81,0.00,,,0.00,VWS V12.07,2013-02-19 12:29:00,
2013-02-19 06:34:00,9.5,5.1,29.71,WSW,252,0.0,8.0,82,0.00,,,0.00,VWS V12.07,2013-02-19 12:34:00,
2013-02-19 06:39:00,9.4,5.0,29.71,East,82,2.0,8.0,82,0.00,,,0.00,VWS V12.07,2013-02-19 12:39:00,
2013-02-19 06:44:00,9.2,4.6,29.72,NNE,31,5.0,8.0,81,0.00,,,0.00,VWS V12.07,2013-02-19 12:44:00,
2013-02-19 06:49:00,9.0,4.4,29.72,WSW,238,1.0,8.0,81,0.00,,,0.00,VWS V12.07,2013-02-19 12:49:00,
2013-02-19 06:59:00,8.9,4.5,29.72,NNW,343,4.0,9.0,82,0.00,,,0.00,VWS V12.07,2013-02-19 12:59:00,
2013-02-19 07:04:00,8.7,4.3,29.73,WNW,283,3.0,8.0,82,0.00,,,0.00,VWS V12.07,2013-02-19 13:04:00,
2013-02-19 07:09:00,8.6,4.2,29.73,West,278,7.0,8.0,82,0.00,,,0.00,VWS V12.07,2013-02-19 13:09:00,
2013-02-19 07:14:00,8.5,4.2,29.73,West,275,1.0,8.0,82,0.00,,,0.00,VWS V12.07,2013-02-19 13:14:00,
2013-02-19 07:19:00,8.3,4.0,29.73,NW,323,3.0,10.0,82,0.00,,,0.00,VWS V12.07,2013-02-19 13:19:00,
2013-02-19 07:24:00,8.2,3.8,29.74,NE,52,1.0,11.0,82,0.00,,,0.00,VWS V12.07,2013-02-19 13:24:00,
2013-02-19 07:29:00,8.1,3.8,29.74,WSW,247,4.0,11.0,82,0.00,,,0.00,VWS V12.07,2013-02-19 13:29:00,
2013-02-19 07:34:00,8.0,3.7,29.74,West,273,3.0,6.0,82,0.00,,,0.00,VWS V12.07,2013-02-19 13:34:00,
2013-02-19 07:39:00,7.8,3.5,29.74,SW,233,9.0,11.0,82,0.00,,,0.00,VWS V12.07,2013-02-19 13:39:00,
2013-02-19 07:44:00,7.7,3.4,29.75,NNW,341,3.0,11.0,82,0.00,,,0.00,VWS V12.07,2013-02-19 13:44:00,
2013-02-19 07:49:00,7.7,3.4,29.75,ENE,61,2.0,11.0,82,0.00,,,0.00,VWS V12.07,2013-02-19 13:49:00,
2013-02-19 07:54:00,7.7,3.4,29.76,WSW,248,0.0,11.0,82,0.00,,,0.00,VWS V12.07,2013-02-19 13:54:00,
2013-02-19 07:59:00,7.7,3.4,29.76,WSW,244,0.0,11.0,82,0.00,,,0.00,VWS V12.07,2013-02-19 13:59:00,
2013-02-19 08:09:00,7.4,2.8,29.76,East,86,6.0,8.0,81,0.00,,,0.00,VWS V12.07,2013-02-19 14:09:00,
2013-02-19 08:14:00,7.3,2.7,29.77,West,268,8.0,8.0,81,0.00,,,0.00,VWS V12.07,2013-02-19 14:14:00,
2013-02-19 08:19:00,7.3,2.7,29.77,East,101,2.0,10.0,81,0.00,,,0.00,VWS V12.07,2013-02-19 14:19:00,
2013-02-19 08:29:00,7.1,2.2,29.78,SW,234,1.0,14.0,80,0.00,,,0.00,VWS V12.07,2013-02-19 14:29:00,
2013-02-19 08:34:00,7.1,2.2,29.78,SW,234,0.0,4.0,80,0.00,,,0.00,VWS V12.07,2013-02-19 14:34:00,
2013-02-19 08:39:00,7.1,2.2,29.78,WSW,242,1.0,9.0,80,0.00,,,0.00,VWS V12.07,2013-02-19 14:39:00,
2013-02-19 08:44:00,7.1,2.2,29.78,NNW,346,1.0,9.0,80,0.00,,,0.00,VWS V12.07,2013-02-19 14:44:00,
2013-02-19 08:49:00,7.0,1.9,29.79,SSW,205,2.0,9.0,79,0.00,,,0.00,VWS V12.07,2013-02-19 14:49:00,
2013-02-19 08:59:00,6.8,1.7,29.79,NNW,344,9.0,9.0,79,0.00,,,0.00,VWS V12.07,2013-02-19 14:59:00,
2013-02-19 09:04:00,6.9,1.8,29.79,WSW,241,0.0,5.0,79,0.00,,,0.00,VWS V12.07,2013-02-19 15:04:00,
2013-02-19 09:09:00,6.9,2.0,29.80,West,260,0.0,6.0,80,0.00,,,0.00,VWS V12.07,2013-02-19 15:09:00,
2013-02-19 09:14:00,6.8,1.7,29.80,WSW,238,4.0,6.0,79,0.00,,,0.00,VWS V12.07,2013-02-19 15:14:00,
2013-02-19 09:19:00,6.7,1.6,29.80,NNW,344,3.0,10.0,79,0.00,,,0.00,VWS V12.07,2013-02-19 15:19:00,
2013-02-19 09:24:00,6.6,1.5,29.80,West,265,0.0,10.0,79,0.00,,,0.00,VWS V12.07,2013-02-19 15:24:00,
2013-02-19 09:29:00,6.5,1.7,29.80,NW,315,1.0,10.0,80,0.00,,,0.00,VWS V12.07,2013-02-19 15:29:00,
2013-02-19 09:34:00,6.5,1.7,29.81,South,179,1.0,4.0,80,0.00,,,0.00,VWS V12.07,2013-02-19 15:34:00,
2013-02-19 09:39:00,6.2,1.1,29.81,North,360,2.0,14.0,79,0.00,,,0.00,VWS V12.07,2013-02-19 15:39:00,
2013-02-19 09:49:00,5.9,0.5,29.82,West,271,4.0,14.0,78,0.00,,,0.00,VWS V12.07,2013-02-19 15:49:00,
2013-02-19 09:54:00,5.7,0.3,29.82,North,360,1.0,14.0,78,0.00,,,0.00,VWS V12.07,2013-02-19 15:54:00,
2013-02-19 09:59:00,5.8,0.7,29.82,North,355,4.0,14.0,79,0.00,,,0.00,VWS V12.07,2013-02-19 15:59:00,
2013-02-19 10:09:00,5.9,0.8,29.82,WSW,243,3.0,14.0,79,0.00,,,0.00,VWS V12.07,2013-02-19 16:09:00,
2013-02-19 10:14:00,5.8,0.4,29.83,West,261,1.0,14.0,78,0.00,,,0.00,VWS V12.07,2013-02-19 16:14:00,
2013-02-19 10:19:00,5.8,0.2,29.83,ENE,76,1.0,17.0,77,0.00,,,0.00,VWS V12.07,2013-02-19 16:19:00,
2013-02-19 10:24:00,6.1,0.7,29.83,NNW,345,2.0,17.0,78,0.00,,,0.00,VWS V12.07,2013-02-19 16:24:00,
2013-02-19 10:29:00,6.2,0.6,29.83,NW,307,2.0,17.0,77,0.00,,,0.00,VWS V12.07,2013-02-19 16:29:00,
2013-02-19 10:34:00,6.4,0.5,29.84,WSW,242,5.0,7.0,76,0.00,,,0.00,VWS V12.07,2013-02-19 16:34:00,
2013-02-19 10:44:00,6.6,0.4,29.84,North,5,8.0,8.0,75,0.00,,,0.00,VWS V12.07,2013-02-19 16:44:00,
2013-02-19 10:54:00,6.8,0.6,29.84,NNE,17,0.0,12.0,75,0.00,,,0.00,VWS V12.07,2013-02-19 16:54:00,
2013-02-19 10:59:00,7.2,1.0,29.85,NE,44,1.0,12.0,75,0.00,,,0.00,VWS V12.07,2013-02-19 16:59:00,
2013-02-19 11:04:00,7.9,1.6,29.85,North,355,1.0,5.0,75,0.00,,,0.00,VWS V12.07,2013-02-19 17:04:00,
2013-02-19 11:09:00,8.1,1.5,29.85,NNE,15,1.0,6.0,74,0.00,,,0.00,VWS V12.07,2013-02-19 17:09:00,
2013-02-19 11:14:00,8.2,1.4,29.86,WSW,239,10.0,10.0,73,0.00,,,0.00,VWS V12.07,2013-02-19 17:14:00,
2013-02-19 11:19:00,7.8,1.0,29.86,NNW,342,6.0,13.0,73,0.00,,,0.00,VWS V12.07,2013-02-19 17:19:00,
2013-02-19 11:29:00,8.1,1.0,29.87,NNW,329,0.0,13.0,72,0.00,,,0.00,VWS V12.07,2013-02-19 17:29:00,
2013-02-19 11:34:00,8.5,1.3,29.87,WNW,284,10.0,10.0,72,0.00,,,0.00,VWS V12.07,2013-02-19 17:34:00,
2013-02-19 11:39:00,8.4,0.9,29.87,NNE,15,3.0,11.0,71,0.00,,,0.00,VWS V12.07,2013-02-19 17:39:00,
2013-02-19 11:44:00,8.2,0.8,29.88,North,349,3.0,11.0,71,0.00,,,0.00,VWS V12.07,2013-02-19 17:44:00,
2013-02-19 11:49:00,8.5,1.3,29.88,North,5,1.0,11.0,72,0.00,,,0.00,VWS V12.07,2013-02-19 17:49:00,
2013-02-19 11:54:00,8.5,0.7,29.88,ENE,71,3.0,11.0,70,0.00,,,0.00,VWS V12.07,2013-02-19 17:54:00,
2013-02-19 12:04:00,8.7,1.5,29.88,ESE,116,1.0,4.0,72,0.00,,,0.00,VWS V12.07,2013-02-19 18:04:00,
2013-02-19 12:09:00,9.0,1.5,29.89,NNW,327,1.0,8.0,71,0.00,,,0.00,VWS V12.07,2013-02-19 18:09:00,
2013-02-19 12:14:00,8.8,1.3,29.89,WNW,292,1.0,11.0,71,0.00,,,0.00,VWS V12.07,2013-02-19 18:14:00,
2013-02-19 12:19:00,8.7,0.9,29.89,WNW,302,2.0,12.0,70,0.00,,,0.00,VWS V12.07,2013-02-19 18:19:00,
2013-02-19 12:24:00,8.9,1.1,29.89,ESE,119,4.0,12.0,70,0.00,,,0.00,VWS V12.07,2013-02-19 18:24:00,
2013-02-19 12:29:00,8.8,1.0,29.89,SE,146,3.0,12.0,70,0.00,,,0.00,VWS V12.07,2013-02-19 18:29:00,
2013-02-19 12:34:00,8.6,0.5,29.90,NNE,13,2.0,6.0,69,0.00,,,0.00,VWS V12.07,2013-02-19 18:34:00,
2013-02-19 12:39:00,8.9,1.4,29.90,WNW,294,2.0,6.0,71,0.00,,,0.00,VWS V12.07,2013-02-19 18:39:00,
2013-02-19 12:49:00,9.4,1.6,29.90,NNE,23,8.0,11.0,70,0.00,,,0.00,VWS V12.07,2013-02-19 18:49:00,
2013-02-19 12:54:00,9.5,1.4,29.91,ENE,64,5.0,11.0,69,0.00,,,0.00,VWS V12.07,2013-02-19 18:54:00,
2013-02-19 12:59:00,9.4,1.3,29.91,WNW,290,1.0,11.0,69,0.00,,,0.00,VWS V12.07,2013-02-19 18:59:00,
2013-02-19 13:09:00,8.7,0.6,29.91,South,178,1.0,7.0,69,0.00,,,0.00,VWS V12.07,2013-02-19 19:09:00,
2013-02-19 13:14:00,8.6,0.8,29.92,NNE,26,3.0,9.0,70,0.00,,,0.00,VWS V12.07,2013-02-19 19:14:00,
2013-02-19 13:19:00,8.7,0.6,29.92,NNW,345,2.0,10.0,69,0.00,,,0.00,VWS V12.07,2013-02-19 19:19:00,
2013-02-19 13:24:00,8.6,2.6,29.93,South,176,3.0,12.0,76,0.00,,,0.00,VWS V12.07,2013-02-19 19:24:00,
2013-02-19 13:29:00,8.7,0.9,29.93,WSW,256,3.0,14.0,70,0.00,,,0.00,VWS V12.07,2013-02-19 19:29:00,
2013-02-19 13:34:00,8.6,0.2,29.93,WNW,299,6.0,6.0,68,0.00,,,0.00,VWS V12.07,2013-02-19 19:34:00,
2013-02-19 13:39:00,8.3,0.2,29.93,East,98,3.0,7.0,69,0.00,,,0.00,VWS V12.07,2013-02-19 19:39:00,
2013-02-19 13:49:00,8.6,0.5,29.94,North,9,0.0,9.0,69,0.00,,,0.00,VWS V12.07,2013-02-19 19:49:00,
2013-02-19 13:54:00,8.7,0.6,29.94,WNW,296,2.0,16.0,69,0.00,,,0.00,VWS V12.07,2013-02-19 19:54:00,
2013-02-19 13:59:00,9.2,1.1,29.94,NNW,336,6.0,16.0,69,0.00,,,0.00,VWS V12.07,2013-02-19 19:59:00,
2013-02-19 14:04:00,9.3,0.9,29.95,NNE,12,4.0,7.0,68,0.00,,,0.00,VWS V12.07,2013-02-19 20:04:00,
2013-02-19 14:09:00,9.0,0.3,29.95,East,82,6.0,11.0,67,0.00,,,0.00,VWS V12.07,2013-02-19 20:09:00,
2013-02-19 14:14:00,8.6,0.2,29.95,WSW,248,4.0,11.0,68,0.00,,,0.00,VWS V12.07,2013-02-19 20:14:00,
2013-02-19 14:19:00,8.3,-0.1,29.95,SE,124,1.0,11.0,68,0.00,,,0.00,VWS V12.07,2013-02-19 20:19:00,
2013-02-19 14:24:00,8.2,0.2,29.96,NW,319,1.0,11.0,69,0.00,,,0.00,VWS V12.07,2013-02-19 20:24:00,
2013-02-19 14:34:00,8.2,0.2,29.97,North,360,6.0,7.0,69,0.00,,,0.00,VWS V12.07,2013-02-19 20:34:00,
2013-02-19 14:39:00,8.1,0.1,29.97,West,267,7.0,10.0,69,0.00,,,0.00,VWS V12.07,2013-02-19 20:39:00,
2013-02-19 14:44:00,8.2,0.2,29.98,WNW,295,0.0,10.0,69,0.00,,,0.00,VWS V12.07,2013-02-19 20:44:00,
2013-02-19 14:49:00,8.2,0.2,29.98,NE,56,6.0,10.0,69,0.00,,,0.00,VWS V12.07,2013-02-19 20:49:00,
2013-02-19 14:54:00,7.9,-0.4,29.98,North,10,2.0,13.0,68,0.00,,,0.00,VWS V12.07,2013-02-19 20:54:00,
2013-02-19 15:04:00,7.4,-0.6,29.99,SSE,150,1.0,11.0,69,0.00,,,0.00,VWS V12.07,2013-02-19 21:04:00,
2013-02-19 15:09:00,7.1,-0.9,30.00,South,190,2.0,11.0,69,0.00,,,0.00,VWS V12.07,2013-02-19 21:09:00,
2013-02-19 15:14:00,7.0,-1.0,30.00,SSE,166,1.0,11.0,69,0.00,,,0.00,VWS V12.07,2013-02-19 21:14:00,
2013-02-19 15:19:00,6.9,-0.8,30.01,WNW,297,5.0,11.0,70,0.00,,,0.00,VWS V12.07,2013-02-19 21:19:00,
2013-02-19 15:24:00,6.8,-0.9,30.01,NNW,344,7.0,11.0,70,0.00,,,0.00,VWS V12.07,2013-02-19 21:24:00,
2013-02-19 15:29:00,7.0,-0.4,30.02,North,360,2.0,11.0,71,0.00,,,0.00,VWS V12.07,2013-02-19 21:29:00,
2013-02-19 15:34:00,7.1,-0.6,30.02,WSW,243,4.0,8.0,70,0.00,,,0.00,VWS V12.07,2013-02-19 21:34:00,
2013-02-19 15:39:00,7.0,-0.7,30.03,North,11,1.0,11.0,70,0.00,,,0.00,VWS V12.07,2013-02-19 21:39:00,
2013-02-19 15:44:00,6.7,-1.0,30.03,NNW,345,1.0,11.0,70,0.00,,,0.00,VWS V12.07,2013-02-19 21:44:00,
2013-02-19 15:49:00,6.6,-1.1,30.03,WSW,239,3.0,11.0,70,0.00,,,0.00,VWS V12.07,2013-02-19 21:49:00,
2013-02-19 15:59:00,6.3,-1.1,30.04,ENE,63,4.0,12.0,71,0.00,,,0.00,VWS V12.07,2013-02-19 21:59:00,
2013-02-19 16:04:00,6.1,-1.6,30.05,WSW,252,8.0,8.0,70,0.00,,,0.00,VWS V12.07,2013-02-19 22:04:00,
2013-02-19 16:09:00,5.9,-1.5,30.05,WSW,237,2.0,8.0,71,0.00,,,0.00,VWS V12.07,2013-02-19 22:09:00,
2013-02-19 16:14:00,5.9,-1.5,30.05,West,263,2.0,10.0,71,0.00,,,0.00,VWS V12.07,2013-02-19 22:14:00,
2013-02-19 16:19:00,5.8,-1.6,30.06,NNE,25,1.0,10.0,71,0.00,,,0.00,VWS V12.07,2013-02-19 22:19:00,
2013-02-19 16:24:00,5.7,-1.7,30.06,WSW,250,1.0,10.0,71,0.00,,,0.00,VWS V12.07,2013-02-19 22:24:00,
2013-02-19 16:29:00,5.6,-1.5,30.07,SW,225,5.0,10.0,72,0.00,,,0.00,VWS V12.07,2013-02-19 22:29:00,
2013-02-19 16:34:00,5.5,-1.5,30.07,West,259,2.0,4.0,72,0.00,,,0.00,VWS V12.07,2013-02-19 22:34:00,
2013-02-19 16:44:00,5.3,-1.8,30.08,WNW,284,3.0,12.0,72,0.00,,,0.00,VWS V12.07,2013-02-19 22:44:00,
2013-02-19 16:49:00,5.3,-1.5,30.08,NNW,344,2.0,12.0,73,0.00,,,0.00,VWS V12.07,2013-02-19 22:49:00,
2013-02-19 16:59:00,5.2,-1.5,30.09,NNE,33,0.0,12.0,73,0.00,,,0.00,VWS V12.07,2013-02-19 22:59:00,
2013-02-19 17:04:00,5.2,-1.3,30.09,SW,217,2.0,7.0,74,0.00,,,0.00,VWS V12.07,2013-02-19 23:04:00,
2013-02-19 17:09:00,5.1,-1.4,30.09,NE,38,0.0,7.0,74,0.00,,,0.00,VWS V12.07,2013-02-19 23:09:00,
2013-02-19 17:14:00,5.0,-1.5,30.09,NNW,336,0.0,10.0,74,0.00,,,0.00,VWS V12.07,2013-02-19 23:14:00,
2013-02-19 17:19:00,4.8,-1.9,30.09,West,280,1.0,10.0,73,0.00,,,0.00,VWS V12.07,2013-02-19 23:19:00,
2013-02-19 17:24:00,4.5,-1.9,30.09,WSW,246,3.0,12.0,74,0.00,,,0.00,VWS V12.07,2013-02-19 23:24:00,
2013-02-19 17:34:00,4.2,-2.2,30.09,WSW,247,1.0,4.0,74,0.00,,,0.00,VWS V12.07,2013-02-19 23:34:00,
2013-02-19 17:39:00,4.0,-2.4,30.10,West,263,0.0,5.0,74,0.00,,,0.00,VWS V12.07,2013-02-19 23:39:00,
2013-02-19 17:44:00,3.9,-2.2,30.10,SSW,199,0.0,6.0,75,0.00,,,0.00,VWS V12.07,2013-02-19 23:44:00,
2013-02-19 17:49:00,3.8,-2.6,30.10,NW,308,1.0,6.0,74,0.00,,,0.00,VWS V12.07,2013-02-19 23:49:00,
2013-02-19 17:54:00,3.6,-2.8,30.10,South,189,2.0,8.0,74,0.00,,,0.00,VWS V12.07,2013-02-19 23:54:00,
2013-02-19 17:59:00,3.5,-2.6,30.11,West,261,0.0,9.0,75,0.00,,,0.00,VWS V12.07,2013-02-19 23:59:00,
2013-02-19 18:04:00,3.4,-2.7,30.11,SW,231,0.0,1.0,75,0.00,,,0.00,VWS V12.07,2013-02-20 00:04:00,
2013-02-19 18:14:00,2.9,-2.9,30.11,WSW,242,2.0,7.0,76,0.00,,,0.00,VWS V12.07,2013-02-20 00:14:00,
2013-02-19 18:19:00,2.8,-3.0,30.11,WSW,254,0.0,7.0,76,0.00,,,0.00,VWS V12.07,2013-02-20 00:19:00,
2013-02-19 18:24:00,2.7,-3.1,30.11,SSW,203,0.0,11.0,76,0.00,,,0.00,VWS V12.07,2013-02-20 00:24:00,
2013-02-19 18:29:00,2.6,-3.0,30.11,WSW,239,0.0,11.0,77,0.00,,,0.00,VWS V12.07,2013-02-20 00:29:00,
2013-02-19 18:34:00,2.6,-3.0,30.12,West,261,1.0,6.0,77,0.00,,,0.00,VWS V12.07,2013-02-20 00:34:00,
2013-02-19 18:39:00,2.5,-3.0,30.12,SW,235,2.0,10.0,77,0.00,,,0.00,VWS V12.07,2013-02-20 00:39:00,
2013-02-19 18:44:00,2.4,-3.2,30.12,WSW,257,6.0,10.0,77,0.00,,,0.00,VWS V12.07,2013-02-20 00:44:00,
2013-02-19 18:49:00,2.4,-3.2,30.12,NW,312,1.0,10.0,77,0.00,,,0.00,VWS V12.07,2013-02-20 00:49:00,
2013-02-19 18:54:00,2.4,-3.2,30.12,West,264,2.0,10.0,77,0.00,,,0.00,VWS V12.07,2013-02-20 00:54:00,
2013-02-19 18:59:00,2.5,-2.8,30.13,WNW,299,0.0,10.0,78,0.00,,,0.00,VWS V12.07,2013-02-20 00:59:00,
2013-02-19 19:04:00,2.5,-2.8,30.13,West,263,2.0,2.0,78,0.00,,,0.00,VWS V12.07,2013-02-20 01:04:00,
2013-02-19 19:09:00,2.6,-2.7,30.13,West,261,0.0,8.0,78,0.00,,,0.00,VWS V12.07,2013-02-20 01:09:00,
2013-02-19 19:14:00,2.5,-2.8,30.13,West,260,0.0,8.0,78,0.00,,,0.00,VWS V12.07,2013-02-20 01:14:00,
2013-02-19 19:19:00,2.5,-2.5,30.14,West,276,0.0,8.0,79,0.00,,,0.00,VWS V12.07,2013-02-20 01:19:00,
2013-02-19 19:29:00,2.7,-2.3,30.13,WSW,246,2.0,9.0,79,0.00,,,0.00,VWS V12.07,2013-02-20 01:29:00,
2013-02-19 19:34:00,2.6,-2.4,30.14,West,269,1.0,2.0,79,0.00,,,0.00,VWS V12.07,2013-02-20 01:34:00,
2013-02-19 19:39:00,2.6,-2.4,30.14,SW,236,3.0,6.0,79,0.00,,,0.00,VWS V12.07,2013-02-20 01:39:00,
2013-02-19 19:44:00,2.4,-2.6,30.14,WSW,257,0.0,7.0,79,0.00,,,0.00,VWS V12.07,2013-02-20 01:44:00,
2013-02-19 19:49:00,2.4,-2.3,30.14,SW,236,1.0,7.0,80,0.00,,,0.00,VWS V12.07,2013-02-20 01:49:00,
2013-02-19 19:54:00,2.4,-2.3,30.14,West,276,2.0,7.0,80,0.00,,,0.00,VWS V12.07,2013-02-20 01:54:00,
2013-02-19 19:59:00,2.4,-2.3,30.14,WSW,242,2.0,8.0,80,0.00,,,0.00,VWS V12.07,2013-02-20 01:59:00,
2013-02-19 20:04:00,2.4,-2.1,30.15,WSW,254,0.0,3.0,81,0.00,,,0.00,VWS V12.07,2013-02-20 02:04:00,
2013-02-19 20:09:00,2.4,-2.1,30.15,SW,230,0.0,5.0,81,0.00,,,0.00,VWS V12.07,2013-02-20 02:09:00,
2013-02-19 20:14:00,2.3,-2.2,30.15,North,360,0.0,5.0,81,0.00,,,0.00,VWS V12.07,2013-02-20 02:14:00,
2013-02-19 20:19:00,2.3,-2.2,30.15,WSW,242,0.0,5.0,81,0.00,,,0.00,VWS V12.07,2013-02-20 02:19:00,
2013-02-19 20:24:00,2.3,-2.2,30.15,WSW,258,0.0,5.0,81,0.00,,,0.00,VWS V12.07,2013-02-20 02:24:00,
2013-02-19 20:34:00,2.6,-1.4,30.15,West,271,1.0,4.0,83,0.00,,,0.00,VWS V12.07,2013-02-20 02:34:00,
2013-02-19 20:39:00,2.8,-1.2,30.15,West,274,1.0,7.0,83,0.00,,,0.00,VWS V12.07,2013-02-20 02:39:00,
2013-02-19 20:49:00,3.3,-0.7,30.16,NW,311,0.0,7.0,83,0.00,,,0.00,VWS V12.07,2013-02-20 02:49:00,
2013-02-19 20:54:00,3.3,-0.9,30.16,WSW,258,0.0,7.0,82,0.00,,,0.00,VWS V12.07,2013-02-20 02:54:00,
2013-02-19 20:59:00,3.2,-0.8,30.16,WNW,283,0.0,7.0,83,0.00,,,0.00,VWS V12.07,2013-02-20 02:59:00,
2013-02-19 21:04:00,3.4,-0.6,30.16,NNE,12,0.0,3.0,83,0.00,,,0.00,VWS V12.07,2013-02-20 03:04:00,
2013-02-19 21:09:00,3.8,0.1,30.17,West,280,2.0,4.0,84,0.00,,,0.00,VWS V12.07,2013-02-20 03:09:00,
2013-02-19 21:14:00,4.7,0.9,30.17,East,86,2.0,8.0,84,0.00,,,0.00,VWS V12.07,2013-02-20 03:14:00,
2013-02-19 21:19:00,5.5,1.5,30.17,SW,219,0.0,8.0,83,0.00,,,0.00,VWS V12.07,2013-02-20 03:19:00,
2013-02-19 21:24:00,6.2,1.9,30.18,NNW,330,1.0,8.0,82,0.00,,,0.00,VWS V12.07,2013-02-20 03:24:00,
2013-02-19 21:29:00,6.8,2.2,30.18,SSW,196,0.0,14.0,81,0.00,,,0.00,VWS V12.07,2013-02-20 03:29:00,
2013-02-19 21:34:00,7.2,2.3,30.18,West,270,1.0,4.0,80,0.00,,,0.00,VWS V12.07,2013-02-20 03:34:00,
2013-02-19 21:44:00,7.2,2.1,30.18,NW,310,1.0,12.0,79,0.00,,,0.00,VWS V12.07,2013-02-20 03:44:00,
2013-02-19 21:49:00,7.3,2.4,30.19,NE,46,1.0,12.0,80,0.00,,,0.00,VWS V12.07,2013-02-20 03:49:00,
2013-02-19 21:54:00,7.4,2.5,30.19,WNW,295,1.0,12.0,80,0.00,,,0.00,VWS V12.07,2013-02-20 03:54:00,
2013-02-19 22:04:00,7.4,2.5,30.19,ESE,109,1.0,2.0,80,0.00,,,0.00,VWS V12.07,2013-02-20 04:04:00,
2013-02-19 22:09:00,7.3,2.4,30.19,WSW,257,0.0,8.0,80,0.00,,,0.00,VWS V12.07,2013-02-20 04:09:00,
2013-02-19 22:14:00,7.3,2.4,30.20,East,89,2.0,8.0,80,0.00,,,0.00,VWS V12.07,2013-02-20 04:14:00,
2013-02-19 22:19:00,7.3,2.4,30.20,WSW,241,2.0,10.0,80,0.00,,,0.00,VWS V12.07,2013-02-20 04:19:00,
2013-02-19 22:29:00,7.1,2.2,30.21,WSW,240,2.0,13.0,80,0.00,,,0.00,VWS V12.07,2013-02-20 04:29:00,
2013-02-19 22:34:00,7.1,2.2,30.21,NW,309,0.0,3.0,80,0.00,,,0.00,VWS V12.07,2013-02-20 04:34:00,
2013-02-19 22:39:00,7.0,2.4,30.21,WSW,249,3.0,4.0,81,0.00,,,0.00,VWS V12.07,2013-02-20 04:39:00,
2013-02-19 22:49:00,6.7,2.1,30.22,WSW,252,1.0,6.0,81,0.00,,,0.00,VWS V12.07,2013-02-20 04:49:00,
2013-02-19 22:54:00,6.5,1.9,30.22,NW,318,0.0,6.0,81,0.00,,,0.00,VWS V12.07,2013-02-20 04:54:00,
2013-02-19 23:04:00,6.0,1.4,30.23,SW,229,3.0,6.0,81,0.00,,,0.00,VWS V12.07,2013-02-20 05:04:00,
2013-02-19 23:09:00,5.9,1.6,30.23,North,360,0.0,6.0,82,0.00,,,0.00,VWS V12.07,2013-02-20 05:09:00,
2013-02-19 23:14:00,5.9,1.6,30.23,West,268,1.0,6.0,82,0.00,,,0.00,VWS V12.07,2013-02-20 05:14:00,
2013-02-19 23:19:00,5.8,1.5,30.24,West,261,0.0,8.0,82,0.00,,,0.00,VWS V12.07,2013-02-20 05:19:00,
2013-02-19 23:29:00,5.6,1.3,30.24,West,259,0.0,8.0,82,0.00,,,0.00,VWS V12.07,2013-02-20 05:29:00,
2013-02-19 23:34:00,5.5,1.5,30.24,WNW,295,0.0,2.0,83,0.00,,,0.00,VWS V12.07,2013-02-20 05:34:00,
2013-02-19 23:39:00,5.5,1.5,30.25,West,275,0.0,3.0,83,0.00,,,0.00,VWS V12.07,2013-02-20 05:39:00,
2013-02-19 23:49:00,5.5,1.5,30.25,WSW,245,4.0,4.0,83,0.00,,,0.00,VWS V12.07,2013-02-20 05:49:00,
2013-02-19 23:54:00,5.5,1.5,30.25,NNE,28,2.0,6.0,83,0.00,,,0.00,VWS V12.07,2013-02-20 05:54:00,
2013-02-19 23:59:00,5.6,1.6,30.26,NNW,348,1.0,6.0,83,0.00,,,0.00,VWS V12.07,2013-02-20 05:59:00,